Home > Products > Valid Products > TAF

000
FTUS45 KREV 290500
TAFRNO
TAF
KRNO 290533Z 2906/3006 VRB04KT P6SM BKN140 OVC200
     FM292100 33008KT P6SM VCSH SCT080 BKN120
     FM300400 VRB04KT P6SM SCT140=



000
FTUS45 KREV 290500
TAFRNO
TAF
KRNO 290533Z 2906/3006 VRB04KT P6SM BKN140 OVC200
     FM292100 33008KT P6SM VCSH SCT080 BKN120
     FM300400 VRB04KT P6SM SCT140=



000
FTUS45 KREV 290000 AAB
TAFRNO
TAF AMD
KRNO 290043Z 2901/2924 29016G26KT P6SM -TSRA SCT090 BKN120CB OVC200
     FM290200 29013G20KT P6SM VCSH BKN120 OVC200
     FM290400 VRB04KT P6SM BKN120 OVC200
     FM292100 33008KT P6SM VCSH BKN100 BKN200=



000
FTUS45 KREV 290000 AAB
TAFRNO
TAF AMD
KRNO 290043Z 2901/2924 29016G26KT P6SM -TSRA SCT090 BKN120CB OVC200
     FM290200 29013G20KT P6SM VCSH BKN120 OVC200
     FM290400 VRB04KT P6SM BKN120 OVC200
     FM292100 33008KT P6SM VCSH BKN100 BKN200=



000
FTUS45 KREV 290000 AAA
TAFRNO
TAF AMD
KRNO 290009Z 2900/2924 29013G20KT P6SM VCSH BKN100 OVC200
      TEMPO 2900/2901 29022G35KT
     FM290300 VRB04KT P6SM BKN120 OVC200
     FM292100 33008KT P6SM VCSH BKN100 BKN200=



000
FTUS45 KREV 290000 AAA
TAFRNO
TAF AMD
KRNO 290009Z 2900/2924 29013G20KT P6SM VCSH BKN100 OVC200
      TEMPO 2900/2901 29022G35KT
     FM290300 VRB04KT P6SM BKN120 OVC200
     FM292100 33008KT P6SM VCSH BKN100 BKN200=



000
FTUS45 KREV 282300
TAFRNO
TAF
KRNO 282339Z 2900/2924 29013G20KT P6SM VCSH BKN100 OVC200
     FM290300 VRB04KT P6SM BKN120 OVC200
     FM292100 33008KT P6SM VCSH BKN100 BKN200=



000
FTUS45 KREV 282300
TAFRNO
TAF
KRNO 282339Z 2900/2924 29013G20KT P6SM VCSH BKN100 OVC200
     FM290300 VRB04KT P6SM BKN120 OVC200
     FM292100 33008KT P6SM VCSH BKN100 BKN200=



000
FTUS45 KREV 281700
TAFRNO
TAF
KRNO 281739Z 2818/2918 VRB04KT P6SM SCT110 BKN200
     FM282100 26010KT P6SM BKN100 OVC200
     FM290000 29013G20KT P6SM BKN100 OVC200
     FM290300 VRB04KT P6SM BKN100 OVC200=



000
FTUS45 KREV 281700
TAFRNO
TAF
KRNO 281739Z 2818/2918 VRB04KT P6SM SCT110 BKN200
     FM282100 26010KT P6SM BKN100 OVC200
     FM290000 29013G20KT P6SM BKN100 OVC200
     FM290300 VRB04KT P6SM BKN100 OVC200=



000
FTUS45 KREV 281100
TAFRNO
TAF
KRNO 281120Z 2812/2912 VRB04KT P6SM SCT110 BKN200
     FM282100 26010KT P6SM BKN100 OVC200
     FM290100 26010KT P6SM VCSH BKN100 OVC200
     FM290300 VRB04KT P6SM BKN100 OVC200=



000
FTUS45 KREV 281100
TAFRNO
TAF
KRNO 281120Z 2812/2912 VRB04KT P6SM SCT110 BKN200
     FM282100 26010KT P6SM BKN100 OVC200
     FM290100 26010KT P6SM VCSH BKN100 OVC200
     FM290300 VRB04KT P6SM BKN100 OVC200=



000
FTUS45 KREV 280500
TAFRNO
TAF
KRNO 280520Z 2806/2906 VRB04KT P6SM SCT110 BKN200
     FM282100 26010KT P6SM BKN100 OVC200
     FM290100 26010KT P6SM VCSH BKN100 OVC200
     FM290300 VRB04KT P6SM BKN100 OVC200=



000
FTUS45 KREV 280500
TAFRNO
TAF
KRNO 280520Z 2806/2906 VRB04KT P6SM SCT110 BKN200
     FM282100 26010KT P6SM BKN100 OVC200
     FM290100 26010KT P6SM VCSH BKN100 OVC200
     FM290300 VRB04KT P6SM BKN100 OVC200=



000
FTUS45 KREV 272300
TAFRNO
TAF
KRNO 272321Z 2800/2824 30010KT P6SM BKN120 BKN200
     FM280500 VRB04KT P6SM SCT110 BKN200
     FM282100 26010KT P6SM BKN100 OVC200=



000
FTUS45 KREV 272300
TAFRNO
TAF
KRNO 272321Z 2800/2824 30010KT P6SM BKN120 BKN200
     FM280500 VRB04KT P6SM SCT110 BKN200
     FM282100 26010KT P6SM BKN100 OVC200=



000
FTUS45 KREV 271700
TAFRNO
TAF
KRNO 271721Z 2718/2818 VRB04KT P6SM SCT120 BKN200
     FM272200 30010KT P6SM BKN120 BKN200
     FM280500 VRB04KT P6SM SCT110 BKN200=



000
FTUS45 KREV 271700
TAFRNO
TAF
KRNO 271721Z 2718/2818 VRB04KT P6SM SCT120 BKN200
     FM272200 30010KT P6SM BKN120 BKN200
     FM280500 VRB04KT P6SM SCT110 BKN200=



000
FTUS45 KREV 271100
TAFRNO
TAF
KRNO 271120Z 2712/2812 VRB03KT P6SM SCT110 BKN200
     FM272200 30010KT P6SM SCT110 BKN200
     FM280500 VRB04KT P6SM SCT110 BKN200=



000
FTUS45 KREV 271100
TAFRNO
TAF
KRNO 271120Z 2712/2812 VRB03KT P6SM SCT110 BKN200
     FM272200 30010KT P6SM SCT110 BKN200
     FM280500 VRB04KT P6SM SCT110 BKN200=



000
FTUS45 KREV 270500
TAFRNO
TAF
KRNO 270520Z 2706/2806 VRB03KT P6SM SCT110 BKN200
     FM272200 30010KT P6SM SCT110 BKN200
     FM280500 VRB04KT P6SM SCT110 BKN200=



000
FTUS45 KREV 270500
TAFRNO
TAF
KRNO 270520Z 2706/2806 VRB03KT P6SM SCT110 BKN200
     FM272200 30010KT P6SM SCT110 BKN200
     FM280500 VRB04KT P6SM SCT110 BKN200=



000
FTUS45 KREV 262300
TAFRNO
TAF
KRNO 262328Z 2700/2724 29013G20KT P6SM SCT120 BKN200
     FM270500 VRB03KT P6SM BKN120 OVC200
     FM272100 07006KT P6SM SCT110 BKN200=



000
FTUS45 KREV 261700
TAFRNO
TAF
KRNO 261733Z 2618/2718 VRB04KT P6SM SCT150 BKN250
     FM262300 29013G20KT P6SM SCT120 BKN200
     FM270500 VRB03KT P6SM BKN120 OVC200=



000
FTUS45 KREV 261700
TAFRNO
TAF
KRNO 261733Z 2618/2718 VRB04KT P6SM SCT150 BKN250
     FM262300 29013G20KT P6SM SCT120 BKN200
     FM270500 VRB03KT P6SM BKN120 OVC200=



000
FTUS45 KREV 261100
TAFRNO
TAF
KRNO 261120Z 2612/2712 VRB04KT P6SM SKC
     FM262300 27010G18KT P6SM FEW100 SCT200
     FM270500 VRB03KT P6SM FEW100 SCT200=



000
FTUS45 KREV 261100
TAFRNO
TAF
KRNO 261120Z 2612/2712 VRB04KT P6SM SKC
     FM262300 27010G18KT P6SM FEW100 SCT200
     FM270500 VRB03KT P6SM FEW100 SCT200=



    US Dept of Commerce
    National Oceanic and Atmospheric Administration
    National Weather Service
    1325 East West Highway
    Silver Spring, MD 20910
    Page Author: NWS Internet Services Team
Disclaimer
Information Quality
Credits
Glossary
Privacy Policy
Freedom of Information Act (FOIA)
About Us
Career Opportunities